Weather History for KISQ - February, 2013

Change the Weather History Date:

Wednesday, February 27, 2013

  Actual Average Record
Temperature  
Mean Temperature 30 °F -  
Max Temperature 33 °F 29 °F - (-1)
Min Temperature 26 °F 11 °F - (-1)
Degree Days  
Heating Degree Days 36    
Moisture  
Dew Point 27 °F    
Average Humidity 85    
Maximum Humidity 93    
Minimum Humidity 74    
Precipitation  
Precipitation 0.00 in - - ()
Sea Level Pressure  
Sea Level Pressure 29.76 in    
Wind  
Wind Speed 13 mph (North)    
Max Wind Speed 17 mph    
Max Gust Speed 21 mph    
Visibility 6 miles    
Events Snow    
Averages and records for this station are not official NWS values.
T = Trace of Precipitation, MM = Missing Value Source: NWS Daily Summary

Daily Weather History Graph

Daily Weather History Graph

Search for Another Location

Airport or City:

Trip Planner

Search our weather history database for the weather conditions in past years. The results will help you decide how hot, cold, wet, or windy it might be!

Date:

Astronomy

Feb. 27, 2013 Rise Set
Actual Time 7:26 AM EST 6:28 PM EST
Civil Twilight 6:56 AM EST 6:58 PM EST
Nautical Twilight 6:22 AM EST 7:33 PM EST
Astronomical Twilight 5:47 AM EST 8:08 PM EST
Moon 9:00 PM EST (2/27) 7:52 AM EST (2/27)
Length of Visible Light 12h 02m
Length of Day
11h 02m
Waning Gibbous, 96% of the Moon is Illuminated
Feb 27
Waning Gibbous
Mar 4
Last Quarter
Mar 11
New
Mar 19
First Quarter
Mar 27
Full

Hourly Weather History & Observations

Time (EST) Temp. Windchill Dew Point Humidity Pressure Visibility Wind Dir Wind Speed Gust Speed Precip Events Conditions
12:14 AM 28.4 °F 17.0 °F 21.2 °F 74% 29.85 in 10.0 mi NNE 15.0 mph 19.6 mph N/A   Clear
12:35 AM 28.4 °F 18.5 °F 21.2 °F 74% 29.84 in 10.0 mi NNE 11.5 mph - N/A   Clear
12:55 AM 28.4 °F 17.5 °F 21.2 °F 74% 29.83 in 10.0 mi NNE 13.8 mph - N/A   Clear
1:14 AM 26.6 °F 15.2 °F 21.2 °F 80% 29.82 in 10.0 mi North 13.8 mph - N/A   Clear
1:35 AM 26.6 °F 15.7 °F 21.2 °F 80% 29.81 in 10.0 mi North 12.7 mph 19.6 mph N/A   Clear
1:55 AM 26.6 °F 15.7 °F 21.2 °F 80% 29.80 in 10.0 mi NNE 12.7 mph - N/A   Clear
2:14 AM 26.6 °F 15.2 °F 21.2 °F 80% 29.80 in 10.0 mi North 13.8 mph 19.6 mph N/A   Clear
2:35 AM 26.6 °F 15.2 °F 21.2 °F 80% 29.79 in 10.0 mi North 13.8 mph - N/A   Clear
2:54 AM 26.6 °F 15.2 °F 21.2 °F 80% 29.78 in 10.0 mi NNE 13.8 mph - N/A   Clear
3:15 AM 26.6 °F 14.7 °F 21.2 °F 80% 29.78 in 10.0 mi North 15.0 mph - N/A   Scattered Clouds
3:35 AM 28.4 °F 17.5 °F 23.0 °F 80% 29.77 in 10.0 mi North 13.8 mph 20.7 mph N/A   Mostly Cloudy
3:54 AM 28.4 °F 16.6 °F 23.0 °F 80% 29.76 in 10.0 mi North 16.1 mph - N/A   Overcast
4:15 AM 28.4 °F 17.0 °F 23.0 °F 80% 29.76 in 10.0 mi North 15.0 mph - N/A   Overcast
4:34 AM 28.4 °F 17.0 °F 23.0 °F 80% 29.76 in 10.0 mi North 15.0 mph 20.7 mph N/A   Overcast
4:54 AM 28.4 °F 18.0 °F 23.0 °F 80% 29.75 in 10.0 mi North 12.7 mph - N/A   Overcast
5:15 AM 28.4 °F 17.5 °F 23.0 °F 80% 29.75 in 3.0 mi North 13.8 mph - N/A Snow Light Snow
5:55 AM 28.4 °F 17.0 °F 24.8 °F 86% 29.75 in 1.5 mi North 15.0 mph 20.7 mph N/A Snow Light Snow
6:14 AM 28.4 °F 18.0 °F 24.8 °F 86% 29.75 in 1.2 mi North 12.7 mph 18.4 mph N/A Snow Light Snow
6:34 AM 28.4 °F 17.5 °F 24.8 °F 86% 29.75 in 1.5 mi North 13.8 mph - N/A Snow Light Snow
6:55 AM 28.4 °F 18.0 °F 24.8 °F 86% 29.75 in 1.2 mi North 12.7 mph - N/A Snow Light Snow
7:14 AM 28.4 °F 18.0 °F 24.8 °F 86% 29.75 in 0.8 mi NNE 12.7 mph 19.6 mph N/A Snow Snow
7:34 AM 28.4 °F 18.0 °F 24.8 °F 86% 29.75 in 1.0 mi North 12.7 mph 19.6 mph N/A Snow Light Snow
7:55 AM 28.4 °F 17.5 °F 26.6 °F 93% 29.75 in 0.8 mi NNE 13.8 mph 20.7 mph N/A Snow Light Snow
8:14 AM 28.4 °F 18.5 °F 26.6 °F 93% 29.75 in 1.2 mi North 11.5 mph - N/A Snow Light Snow
8:34 AM 28.4 °F 18.0 °F 26.6 °F 93% 29.76 in 0.8 mi NNE 12.7 mph - N/A Snow Light Snow
8:55 AM 28.4 °F 18.0 °F 26.6 °F 93% 29.75 in 1.2 mi NNE 12.7 mph - N/A Snow Light Snow
9:14 AM 28.4 °F 18.0 °F 26.6 °F 93% 29.75 in 5.0 mi NNE 12.7 mph 17.3 mph N/A Snow Light Snow
9:35 AM 30.2 °F 19.8 °F 26.6 °F 86% 29.75 in 10.0 mi NNE 13.8 mph 19.6 mph N/A Snow Light Snow
9:54 AM 30.2 °F 19.8 °F 26.6 °F 86% 29.75 in 5.0 mi NNE 13.8 mph 20.7 mph N/A Snow Light Snow
10:15 AM 30.2 °F 18.5 °F 26.6 °F 86% 29.74 in 10.0 mi NNE 17.3 mph 20.7 mph N/A Snow Light Snow
10:34 AM 30.2 °F 20.2 °F 26.6 °F 86% 29.74 in 5.0 mi NNE 12.7 mph 20.7 mph N/A Snow Light Snow
10:54 AM 30.2 °F 18.9 °F 26.6 °F 86% 29.73 in 5.0 mi NNE 16.1 mph - N/A Snow Light Snow
11:14 AM 30.2 °F 20.8 °F 26.6 °F 86% 29.73 in 1.5 mi NNE 11.5 mph 18.4 mph N/A Snow Light Snow
11:34 AM 32.0 °F 21.6 °F 28.4 °F 87% 29.73 in 1.8 mi NNE 15.0 mph 19.6 mph N/A Snow Light Snow
11:55 AM 33.8 °F 25.3 °F 28.4 °F 81% 29.72 in 5.0 mi NNE 11.5 mph 20.7 mph N/A Snow Light Snow
12:14 PM 33.8 °F 25.3 °F 28.4 °F 81% 29.73 in 7.0 mi NNE 11.5 mph 17.3 mph N/A Snow Light Snow
12:35 PM 33.8 °F 24.3 °F 28.4 °F 81% 29.72 in 10.0 mi NNE 13.8 mph 18.4 mph N/A Snow Light Snow
1:14 PM 33.8 °F 25.3 °F 28.4 °F 81% 29.71 in 10.0 mi North 11.5 mph 17.3 mph N/A   Overcast
1:35 PM 33.8 °F 25.8 °F 28.4 °F 81% 29.71 in 10.0 mi North 10.4 mph - N/A   Overcast
1:54 PM 33.8 °F 26.4 °F 28.4 °F 81% 29.71 in 10.0 mi NNE 9.2 mph - N/A   Overcast
2:15 PM 33.8 °F 26.4 °F 28.4 °F 81% 29.72 in 10.0 mi NNE 9.2 mph - N/A   Overcast
2:35 PM 33.8 °F 27.0 °F 28.4 °F 81% 29.72 in 10.0 mi NNE 8.1 mph - N/A   Overcast
2:54 PM 33.8 °F 26.4 °F 28.4 °F 81% 29.71 in 10.0 mi North 9.2 mph - N/A   Overcast
3:15 PM 33.8 °F 27.0 °F 28.4 °F 81% 29.71 in 10.0 mi North 8.1 mph - N/A   Overcast
3:35 PM 33.8 °F 26.4 °F 28.4 °F 81% 29.72 in 10.0 mi North 9.2 mph - N/A Snow Light Snow
3:54 PM 33.8 °F 26.4 °F 28.4 °F 81% 29.72 in 5.0 mi North 9.2 mph - N/A Snow Light Snow
4:15 PM 33.8 °F 27.0 °F 28.4 °F 81% 29.72 in 7.0 mi North 8.1 mph - N/A Snow Light Snow
4:34 PM 33.8 °F 25.8 °F 30.2 °F 87% 29.72 in 7.0 mi North 10.4 mph - N/A Snow Light Snow
4:55 PM 33.8 °F 26.4 °F 30.2 °F 87% 29.73 in 2.5 mi North 9.2 mph - N/A Snow Light Snow
5:15 PM 33.8 °F 26.4 °F 30.2 °F 87% 29.73 in 2.0 mi North 9.2 mph - N/A Snow Light Snow
5:34 PM 33.8 °F 25.8 °F 30.2 °F 87% 29.73 in 2.5 mi North 10.4 mph - N/A Snow Light Snow
5:55 PM 33.8 °F 27.0 °F 30.2 °F 87% 29.74 in 3.0 mi North 8.1 mph - N/A Snow Light Snow
6:14 PM 33.8 °F 25.8 °F 30.2 °F 87% 29.74 in 5.0 mi North 10.4 mph - N/A Snow Light Snow
6:35 PM 33.8 °F 25.3 °F 28.4 °F 81% 29.75 in 5.0 mi North 11.5 mph 19.6 mph N/A Snow Light Snow
6:54 PM 32.0 °F 23.0 °F 30.2 °F 93% 29.75 in 4.0 mi North 11.5 mph 16.1 mph N/A Snow Light Snow
7:15 PM 32.0 °F 23.6 °F 30.2 °F 93% 29.76 in 3.0 mi North 10.4 mph 18.4 mph N/A Snow Light Snow
7:35 PM 32.0 °F 23.0 °F 30.2 °F 93% 29.76 in 5.0 mi North 11.5 mph - N/A Snow Light Snow
7:54 PM 32.0 °F 23.6 °F 30.2 °F 93% 29.77 in 2.0 mi North 10.4 mph 18.4 mph N/A Snow Light Snow
8:15 PM 32.0 °F 23.0 °F 30.2 °F 93% 29.77 in 3.0 mi North 11.5 mph 18.4 mph N/A Snow Light Snow
8:34 PM 32.0 °F 23.6 °F 30.2 °F 93% 29.77 in 4.0 mi North 10.4 mph - N/A Snow Light Snow
8:54 PM 32.0 °F 23.0 °F 30.2 °F 93% 29.77 in 4.0 mi North 11.5 mph - N/A Snow Light Snow
9:15 PM 32.0 °F 23.0 °F 30.2 °F 93% 29.78 in 5.0 mi North 11.5 mph 17.3 mph N/A Snow Light Snow
9:34 PM 32.0 °F 22.5 °F 28.4 °F 87% 29.78 in 5.0 mi North 12.7 mph - N/A Snow Light Snow
9:55 PM 32.0 °F 23.0 °F 30.2 °F 93% 29.78 in 3.0 mi North 11.5 mph - N/A Snow Light Snow
10:15 PM 32.0 °F 23.0 °F 30.2 °F 93% 29.78 in 10.0 mi North 11.5 mph - N/A   Overcast
10:34 PM 32.0 °F 22.1 °F 28.4 °F 87% 29.78 in 10.0 mi North 13.8 mph - N/A   Overcast
10:55 PM 32.0 °F 23.0 °F 28.4 °F 87% 29.78 in 7.0 mi North 11.5 mph 19.6 mph N/A   Overcast
11:14 PM 32.0 °F 23.0 °F 28.4 °F 87% 29.78 in 10.0 mi North 11.5 mph - N/A   Overcast
11:35 PM 32.0 °F 22.1 °F 28.4 °F 87% 29.78 in 10.0 mi North 13.8 mph 19.6 mph N/A   Overcast
11:54 PM 32.0 °F 21.6 °F 28.4 °F 87% 29.78 in 10.0 mi North 15.0 mph 20.7 mph N/A   Overcast